createdAt,value
2022-10-01T00:00:59.360Z,50.02
2022-10-01T00:03:59.151Z,50.02
2022-10-01T00:06:59.491Z,50.02
2022-10-01T00:09:59.119Z,50.02
2022-10-01T00:12:59.127Z,50.02
2022-10-01T00:15:59.236Z,50.02
2022-10-01T00:18:59.141Z,50.02
2022-10-01T00:21:59.097Z,50.02
2022-10-01T00:24:59.176Z,50.02
2022-10-01T00:27:58.764Z,50.02
2022-10-01T00:30:59.105Z,50.02
2022-10-01T00:33:58.919Z,50.02
2022-10-01T00:36:58.895Z,50.02
2022-10-01T00:39:59.446Z,50.02
2022-10-01T00:42:59.091Z,50.02
2022-10-01T00:45:58.974Z,50.02
2022-10-01T00:48:58.720Z,50.02
2022-10-01T00:51:59.302Z,50.02
2022-10-01T00:54:59.174Z,50.02
2022-10-01T00:57:58.882Z,50.02
2022-10-01T01:00:58.835Z,50.02
2022-10-01T01:03:58.418Z,50.02
2022-10-01T01:06:59.532Z,50.02
2022-10-01T01:09:58.374Z,50.02
2022-10-01T01:12:59.384Z,50.02
2022-10-01T01:15:59.410Z,50.02
2022-10-01T01:18:59.519Z,50.02
2022-10-01T01:21:58.963Z,50.02
2022-10-01T01:24:58.670Z,50.02
2022-10-01T01:27:59.222Z,50.02
2022-10-01T01:30:59.465Z,50.02
2022-10-01T01:33:59.443Z,50.02
2022-10-01T01:36:58.711Z,50.02
2022-10-01T01:39:58.892Z,50.02
2022-10-01T01:42:58.971Z,50.02
2022-10-01T01:45:59.260Z,50.02
2022-10-01T01:48:59.068Z,50.02
2022-10-01T01:51:59.291Z,50.02
2022-10-01T01:54:58.854Z,50.02
2022-10-01T01:57:58.795Z,50.02
2022-10-01T02:00:58.945Z,50.02
2022-10-01T02:03:58.786Z,50.02
2022-10-01T02:06:58.692Z,50.02
2022-10-01T02:09:58.727Z,50.02
2022-10-01T02:12:58.612Z,50.02
2022-10-01T02:15:58.638Z,50.02
2022-10-01T02:18:59.164Z,50.02
2022-10-01T02:21:59.387Z,50.02
2022-10-01T02:24:58.426Z,50.02
2022-10-01T02:27:59.362Z,50.02
2022-10-01T02:30:59.377Z,50.02
2022-10-01T02:33:58.611Z,50.02
2022-10-01T02:36:58.392Z,50.02
2022-10-01T02:39:59.599Z,50.02
2022-10-01T02:42:58.684Z,50.02
2022-10-01T02:45:59.206Z,50.02
2022-10-01T02:48:59.257Z,50.02
2022-10-01T02:51:58.401Z,50.02
2022-10-01T02:54:59.305Z,50.02
2022-10-01T02:57:59.013Z,50.02
2022-10-01T03:00:58.961Z,50.02
2022-10-01T03:03:59.008Z,50.02
2022-10-01T03:06:58.820Z,50.02
2022-10-01T03:09:59.263Z,50.02
2022-10-01T03:12:58.864Z,50.02
2022-10-01T03:15:59.412Z,50.02
2022-10-01T03:18:58.700Z,50.02
2022-10-01T03:21:58.676Z,50.02
2022-10-01T03:24:59.560Z,50.02
2022-10-01T03:27:58.558Z,50.02
2022-10-01T03:30:59.127Z,50.02
2022-10-01T03:33:58.875Z,50.02
2022-10-01T03:36:59.135Z,50.02
2022-10-01T03:39:58.605Z,50.02
2022-10-01T03:42:58.386Z,50.02
2022-10-01T03:45:58.825Z,50.02
2022-10-01T03:48:59.200Z,50.02
2022-10-01T03:51:58.917Z,50.02
2022-10-01T03:54:59.364Z,50.02
2022-10-01T03:57:58.794Z,50.02
2022-10-01T04:00:59.493Z,50.02
2022-10-01T04:03:59.243Z,50.02
2022-10-01T04:06:59.550Z,50.02
2022-10-01T04:09:58.920Z,50.02
2022-10-01T04:12:59.315Z,50.02
2022-10-01T04:15:58.973Z,50.02
2022-10-01T04:18:59.062Z,50.02
2022-10-01T04:21:59.177Z,50.02
2022-10-01T04:24:58.911Z,50.02
2022-10-01T04:27:59.278Z,50.02
2022-10-01T04:30:59.533Z,50.02
2022-10-01T04:33:58.589Z,50.02
2022-10-01T04:36:58.436Z,50.02
2022-10-01T04:39:59.679Z,50.02
2022-10-01T04:42:58.635Z,50.02
2022-10-01T04:45:58.442Z,50.02
2022-10-01T04:48:59.388Z,50.02
2022-10-01T04:51:59.304Z,50.02
2022-10-01T04:54:59.386Z,50.02
2022-10-01T04:57:58.683Z,50.02
2022-10-01T05:01:02.049Z,50.02
2022-10-01T05:03:59.226Z,50.02
2022-10-01T05:06:58.613Z,50.02
2022-10-01T05:09:59.330Z,50.02
2022-10-01T05:12:58.726Z,50.02
2022-10-01T05:15:59.342Z,50.02
2022-10-01T05:18:59.226Z,49.99
2022-10-01T05:21:59.121Z,50.01
2022-10-01T05:24:59.040Z,49.99
2022-10-01T05:27:58.819Z,49.99
2022-10-01T05:30:59.336Z,49.97
2022-10-01T05:33:58.791Z,49.99
2022-10-01T05:36:58.770Z,49.97
2022-10-01T05:39:59.075Z,49.97
2022-10-01T05:42:58.898Z,49.98
2022-10-01T05:45:58.877Z,49.99
2022-10-01T05:48:59.006Z,49.99
2022-10-01T05:51:58.917Z,49.98
2022-10-01T05:54:58.896Z,49.97
2022-10-01T05:57:58.922Z,49.99
2022-10-01T06:00:59.638Z,49.99
2022-10-01T06:03:58.911Z,49.98
2022-10-01T06:06:59.404Z,49.99
2022-10-01T06:09:59.223Z,50
2022-10-01T06:12:59.436Z,50
2022-10-01T06:15:58.905Z,50.01
2022-10-01T06:18:59.195Z,49.98
2022-10-01T06:21:59.396Z,49.99
2022-10-01T06:24:59.246Z,49.98
2022-10-01T06:27:59.010Z,49.97
2022-10-01T06:30:59.427Z,49.98
2022-10-01T06:33:59.807Z,49.99
2022-10-01T06:36:59.342Z,50
2022-10-01T06:39:59.260Z,49.99
2022-10-01T06:42:58.916Z,50
2022-10-01T06:45:59.661Z,49.97
2022-10-01T06:48:59.048Z,49.98
2022-10-01T06:51:59.190Z,49.98
2022-10-01T06:54:59.364Z,49.97
2022-10-01T06:57:59.135Z,49.97
2022-10-01T07:00:59.202Z,50.01
2022-10-01T07:03:58.624Z,49.98
2022-10-01T07:06:58.583Z,49.99
2022-10-01T07:09:58.545Z,49.95
2022-10-01T07:12:59.737Z,49.98
2022-10-01T07:15:59.539Z,49.97
2022-10-01T07:18:58.754Z,49.99
2022-10-01T07:21:58.761Z,49.98
2022-10-01T07:24:59.070Z,49.99
2022-10-01T07:27:59.152Z,50
2022-10-01T07:30:59.341Z,49.99
2022-10-01T07:33:59.105Z,49.99
2022-10-01T07:36:59.519Z,49.98
2022-10-01T07:39:59.137Z,49.98
2022-10-01T07:42:59.370Z,49.99
2022-10-01T07:45:59.459Z,50
2022-10-01T07:48:59.061Z,49.97
2022-10-01T07:51:58.922Z,49.97
2022-10-01T07:54:58.964Z,49.98
2022-10-01T07:57:59.249Z,50.01
2022-10-01T08:01:00.040Z,49.96
2022-10-01T08:03:59.006Z,49.98
2022-10-01T08:06:59.080Z,49.99
2022-10-01T08:09:59.221Z,49.97
2022-10-01T08:12:59.572Z,50
2022-10-01T08:15:58.443Z,49.99
2022-10-01T08:18:59.678Z,49.99
2022-10-01T08:21:58.993Z,49.98
2022-10-01T08:24:59.486Z,50
2022-10-01T08:27:59.058Z,50
2022-10-01T08:30:59.382Z,50.01
2022-10-01T08:33:59.297Z,50.03
2022-10-01T08:36:59.128Z,50
2022-10-01T08:39:59.602Z,50.01
2022-10-01T08:42:58.623Z,50.01
2022-10-01T08:45:59.289Z,50.01
2022-10-01T08:48:58.271Z,50.02
2022-10-01T08:51:58.781Z,50.01
2022-10-01T08:54:59.122Z,50.04
2022-10-01T08:57:59.575Z,50.02
2022-10-01T09:00:58.978Z,50
2022-10-01T09:03:58.879Z,49.96
2022-10-01T09:06:58.902Z,50.01
2022-10-01T09:09:58.962Z,50
2022-10-01T09:12:59.383Z,50.02
2022-10-01T09:15:58.906Z,49.99
2022-10-01T09:18:58.857Z,50
2022-10-01T09:21:59.087Z,49.98
2022-10-01T09:24:59.397Z,49.99
2022-10-01T09:27:59.572Z,49.98
2022-10-01T09:30:59.502Z,49.99
2022-10-01T09:33:58.628Z,50
2022-10-01T09:36:58.679Z,50
2022-10-01T09:39:59.176Z,50.02
2022-10-01T09:42:58.368Z,49.98
2022-10-01T09:45:59.546Z,50.03
2022-10-01T09:48:58.712Z,50.02
2022-10-01T09:51:58.418Z,50.01
2022-10-01T09:54:59.191Z,50
2022-10-01T09:57:58.742Z,50
2022-10-01T10:00:59.141Z,50
2022-10-01T10:03:58.809Z,49.98
2022-10-01T10:06:59.087Z,49.98
2022-10-01T10:09:58.910Z,50
2022-10-01T10:12:58.765Z,50.02
2022-10-01T10:15:59.348Z,50.01
2022-10-01T10:18:59.492Z,49.99
2022-10-01T10:21:58.357Z,50.03
2022-10-01T10:24:59.162Z,50.04
2022-10-01T10:27:59.109Z,50.01
2022-10-01T10:30:59.955Z,49.99
2022-10-01T10:33:59.172Z,49.99
2022-10-01T10:37:03.668Z,49.98
2022-10-01T10:39:59.206Z,50
2022-10-01T10:42:59.497Z,50
2022-10-01T10:45:59.940Z,49.98
2022-10-01T10:48:58.825Z,50.02
2022-10-01T10:51:58.455Z,50.01
2022-10-01T10:54:58.608Z,50.02
2022-10-01T10:58:02.195Z,49.99
2022-10-01T11:00:59.252Z,49.98
2022-10-01T11:04:17.790Z,49.97
2022-10-01T11:06:59.240Z,49.98
2022-10-01T11:09:58.734Z,49.98
2022-10-01T11:12:58.596Z,50
2022-10-01T11:15:59.419Z,50
2022-10-01T11:18:59.268Z,49.99
2022-10-01T11:21:59.418Z,49.99
2022-10-01T11:24:59.024Z,49.99
2022-10-01T11:27:58.878Z,49.98
2022-10-01T11:30:59.389Z,49.98
2022-10-01T11:33:59.538Z,50.01
2022-10-01T11:36:58.882Z,50.02
2022-10-01T11:39:59.426Z,50.01
2022-10-01T11:42:58.713Z,50
2022-10-01T11:45:59.325Z,49.99
2022-10-01T11:48:59.230Z,49.99
2022-10-01T11:51:59.193Z,50
2022-10-01T11:54:58.510Z,50
2022-10-01T11:57:58.946Z,50.01
2022-10-01T12:00:59.562Z,49.99
2022-10-01T12:03:59.485Z,50
2022-10-01T12:06:58.949Z,50
2022-10-01T12:10:00.601Z,49.99
2022-10-01T12:12:59.253Z,50.01
2022-10-01T12:15:59.371Z,50
2022-10-01T12:18:59.785Z,50.01
2022-10-01T12:21:59.711Z,49.99
2022-10-01T12:24:58.644Z,49.98
2022-10-01T12:27:59.451Z,50
2022-10-01T12:30:59.161Z,50
2022-10-01T12:33:58.883Z,50
2022-10-01T12:36:59.004Z,49.98
2022-10-01T12:39:59.402Z,49.97
2022-10-01T12:43:03.208Z,50
2022-10-01T12:45:59.661Z,50
2022-10-01T12:48:58.998Z,50.01
2022-10-01T12:51:58.814Z,50.02
2022-10-01T12:54:59.328Z,50.04
2022-10-01T12:57:58.897Z,50.02
2022-10-01T13:00:58.829Z,50
2022-10-01T13:04:03.027Z,50
2022-10-01T13:06:58.414Z,49.98
2022-10-01T13:09:58.759Z,49.97
2022-10-01T13:12:59.344Z,49.99
2022-10-01T13:15:59.552Z,49.98
2022-10-01T13:18:58.602Z,50
2022-10-01T13:21:58.523Z,49.99
2022-10-01T13:24:59.324Z,49.98
2022-10-01T13:27:58.588Z,49.99
2022-10-01T13:30:59.605Z,49.98
2022-10-01T13:33:59.210Z,50
2022-10-01T13:36:59.527Z,49.99
2022-10-01T13:39:59.006Z,49.98
2022-10-01T13:42:59.078Z,50.01
2022-10-01T13:46:00.143Z,50
2022-10-01T13:48:59.338Z,50
2022-10-01T13:51:58.954Z,50
2022-10-01T13:54:59.400Z,49.99
2022-10-01T13:57:59.007Z,50
2022-10-01T14:00:59.857Z,50
2022-10-01T14:03:59.906Z,49.99
2022-10-01T14:06:59.442Z,49.97
2022-10-01T14:09:59.714Z,49.97
2022-10-01T14:12:59.343Z,49.98
2022-10-01T14:15:58.962Z,49.98
2022-10-01T14:18:58.674Z,49.98
2022-10-01T14:21:59.780Z,50
2022-10-01T14:24:58.520Z,49.96
2022-10-01T14:27:59.923Z,49.98
2022-10-01T14:31:00.208Z,50.02
2022-10-01T14:33:59.159Z,49.99
2022-10-01T14:36:59.189Z,50
2022-10-01T14:39:59.352Z,49.95
2022-10-01T14:42:59.254Z,49.99
2022-10-01T14:45:58.771Z,49.97
2022-10-01T14:48:59.682Z,49.97
2022-10-01T14:51:58.392Z,49.96
2022-10-01T14:54:58.444Z,49.95
2022-10-01T14:57:58.703Z,49.98
2022-10-01T15:00:59.479Z,50.02
2022-10-01T15:03:59.175Z,50
2022-10-01T15:06:59.268Z,50.03
2022-10-01T15:09:59.312Z,50
2022-10-01T15:12:58.438Z,50
2022-10-01T15:15:58.914Z,50
2022-10-01T15:18:59.047Z,49.99
2022-10-01T15:21:59.529Z,49.97
2022-10-01T15:24:59.171Z,49.96
2022-10-01T15:27:58.815Z,49.97
2022-10-01T15:30:59.598Z,49.98
2022-10-01T15:33:59.505Z,50.02
2022-10-01T15:36:59.488Z,49.97
2022-10-01T15:39:59.522Z,49.98
2022-10-01T15:42:59.197Z,49.97
2022-10-01T15:45:59.440Z,49.95
2022-10-01T15:48:59.337Z,49.94
2022-10-01T15:51:59.741Z,49.93
2022-10-01T15:54:59.158Z,49.93
2022-10-01T15:57:59.549Z,49.95
2022-10-01T16:00:59.458Z,50
2022-10-01T16:03:59.231Z,50.05
2022-10-01T16:06:58.647Z,50.02
2022-10-01T16:09:58.838Z,50.01
2022-10-01T16:12:59.354Z,49.99
2022-10-01T16:15:59.054Z,49.99
2022-10-01T16:18:59.428Z,49.97
2022-10-01T16:21:58.912Z,49.96
2022-10-01T16:24:59.421Z,49.97
2022-10-01T16:27:58.335Z,49.95
2022-10-01T16:30:59.699Z,49.97
2022-10-01T16:33:59.139Z,49.95
2022-10-01T16:36:59.146Z,49.96
2022-10-01T16:39:59.861Z,49.96
2022-10-01T16:42:59.144Z,49.96
2022-10-01T16:45:59.484Z,49.96
2022-10-01T16:48:58.534Z,49.96
2022-10-01T16:51:58.797Z,49.96
2022-10-01T16:54:58.477Z,49.96
2022-10-01T16:57:58.562Z,49.96
2022-10-01T17:00:59.345Z,49.96
2022-10-01T17:03:58.953Z,49.96
2022-10-01T17:06:59.393Z,49.96
2022-10-01T17:09:59.300Z,49.96
2022-10-01T17:12:59.385Z,49.96
2022-10-01T17:15:59.767Z,49.96
2022-10-01T17:18:59.163Z,49.96
2022-10-01T17:21:59.763Z,49.96
2022-10-01T17:24:59.208Z,49.96
2022-10-01T17:27:59.111Z,49.96
2022-10-01T17:30:59.894Z,49.96
2022-10-01T17:33:59.137Z,49.96
2022-10-01T17:36:58.895Z,49.96
2022-10-01T17:39:59.833Z,49.96
2022-10-01T17:42:59.075Z,49.96
2022-10-01T17:45:59.143Z,49.96
2022-10-01T17:48:59.328Z,49.96
2022-10-01T17:51:59.249Z,49.96
2022-10-01T17:54:59.268Z,49.96
2022-10-01T17:57:59.748Z,49.96
2022-10-01T18:01:26.119Z,49.96
2022-10-01T18:03:59.540Z,49.96
2022-10-01T18:06:59.804Z,49.96
2022-10-01T18:09:59.371Z,49.96
2022-10-01T18:12:58.779Z,49.96
2022-10-01T18:15:59.496Z,49.96
2022-10-01T18:21:59.400Z,49.96
2022-10-01T18:24:59.343Z,49.96
2022-10-01T18:27:59.524Z,49.96
2022-10-01T18:30:59.751Z,49.96
2022-10-01T18:33:58.537Z,49.96
2022-10-01T18:36:58.763Z,49.96
2022-10-01T18:39:59.048Z,49.96
2022-10-01T18:42:58.950Z,49.96
2022-10-01T18:45:59.207Z,49.96
2022-10-01T18:48:58.932Z,49.96
2022-10-01T18:51:58.829Z,49.96
2022-10-01T18:54:59.635Z,49.96
2022-10-01T18:57:58.656Z,49.96
2022-10-01T19:00:59.467Z,49.96
2022-10-01T19:03:59.521Z,49.96
2022-10-01T19:06:59.242Z,49.96
2022-10-01T19:09:59.260Z,49.96
2022-10-01T19:12:59.560Z,49.96
2022-10-01T19:15:58.820Z,49.96
2022-10-01T19:18:58.888Z,49.96
2022-10-01T19:21:59.109Z,49.96
2022-10-01T19:24:59.571Z,49.96
2022-10-01T19:27:59.414Z,49.96
2022-10-01T19:30:58.954Z,49.96
2022-10-01T19:33:59.955Z,49.96
2022-10-01T19:36:59.465Z,49.96
2022-10-01T19:39:58.700Z,49.96
2022-10-01T19:42:58.988Z,49.96
2022-10-01T19:45:59.185Z,49.96
2022-10-01T19:48:59.514Z,49.96
2022-10-01T19:51:58.725Z,49.96
2022-10-01T19:54:58.615Z,49.96
2022-10-01T19:57:58.984Z,49.96
2022-10-01T20:00:59.222Z,49.96
2022-10-01T20:03:59.078Z,49.96
2022-10-01T20:06:59.425Z,49.96
2022-10-01T20:10:05.006Z,49.96
2022-10-01T20:12:59.062Z,49.96
2022-10-01T20:15:59.752Z,49.96
2022-10-01T20:18:59.258Z,49.96
2022-10-01T20:21:59.172Z,49.96
2022-10-01T20:24:59.158Z,49.96
2022-10-01T20:27:58.686Z,49.96
2022-10-01T20:30:59.700Z,49.96
2022-10-01T20:33:59.107Z,49.96
2022-10-01T20:36:59.235Z,49.96
2022-10-01T20:39:59.224Z,49.96
2022-10-01T20:42:59.275Z,49.96
2022-10-01T20:45:58.972Z,49.96
2022-10-01T20:48:59.204Z,49.96
2022-10-01T20:51:58.763Z,49.96
2022-10-01T20:54:58.677Z,49.96
2022-10-01T20:57:58.769Z,49.96
2022-10-01T21:00:59.086Z,49.96
2022-10-01T21:03:59.372Z,49.96
2022-10-01T21:06:59.047Z,49.96
2022-10-01T21:09:59.900Z,49.96
2022-10-01T21:12:59.195Z,49.96
2022-10-01T21:15:59.179Z,49.96
2022-10-01T21:18:59.294Z,49.96
2022-10-01T21:21:59.799Z,49.96
2022-10-01T21:24:58.994Z,49.96
2022-10-01T21:27:59.374Z,49.96
2022-10-01T21:30:59.193Z,49.96
2022-10-01T21:33:58.652Z,49.96
2022-10-01T21:36:59.258Z,49.96
2022-10-01T21:39:59.079Z,49.96
2022-10-01T21:42:59.243Z,49.96
2022-10-01T21:46:00.256Z,49.96
2022-10-01T21:48:59.428Z,49.96
2022-10-01T21:51:59.518Z,49.96
2022-10-01T21:54:59.299Z,49.96
2022-10-01T21:57:58.963Z,49.96
2022-10-01T22:00:59.247Z,49.96
2022-10-01T22:03:58.120Z,49.96
2022-10-01T22:06:59.308Z,49.96
2022-10-01T22:09:59.011Z,49.96
2022-10-01T22:12:59.099Z,49.96
2022-10-01T22:15:59.219Z,49.96
2022-10-01T22:18:58.837Z,49.96
2022-10-01T22:21:59.165Z,49.96
2022-10-01T22:24:59.173Z,49.96
2022-10-01T22:27:58.845Z,49.96
2022-10-01T22:30:58.654Z,49.96
2022-10-01T22:33:58.938Z,49.96
2022-10-01T22:36:59.082Z,49.96
2022-10-01T22:39:58.798Z,49.96
2022-10-01T22:42:59.456Z,49.96
2022-10-01T22:45:58.727Z,49.96
2022-10-01T22:48:58.452Z,49.96
2022-10-01T22:51:58.431Z,49.96
2022-10-01T22:54:58.670Z,49.96
2022-10-01T22:57:58.755Z,49.96
2022-10-01T23:00:59.423Z,49.96
2022-10-01T23:03:58.383Z,49.96
2022-10-01T23:06:59.240Z,49.96
2022-10-01T23:09:58.268Z,49.96
2022-10-01T23:12:58.722Z,49.96
2022-10-01T23:15:59.184Z,49.96
2022-10-01T23:18:59.162Z,49.96
2022-10-01T23:21:59.289Z,49.96
2022-10-01T23:24:58.563Z,49.96
2022-10-01T23:27:58.380Z,49.96
2022-10-01T23:31:15.051Z,49.96
2022-10-01T23:33:58.821Z,49.96
2022-10-01T23:36:58.826Z,49.96
2022-10-01T23:39:58.900Z,49.96
2022-10-01T23:42:58.778Z,49.96
2022-10-01T23:45:58.829Z,49.96
2022-10-01T23:48:58.761Z,49.96
2022-10-01T23:51:58.841Z,49.96
2022-10-01T23:54:58.473Z,49.96
2022-10-01T23:58:02.990Z,49.96
